Latest Weather Observations for Mount William

IDV60801

Issued at 6:02 pm EST Thursday 30 July 2015 (issued every 30 minutes, with the page automatically refreshed every 10 minutes)

About weather observations | Map of weather stations | Latest weather observations for VIC | Other Formats
Station Details ID: 079103 Name: MOUNT WILLIAM Lat: -37.30 Lon: 142.60 Height: 1150.0 m
Data from the previous 72 hours. | See also: Recent months at Mount William
Date/Time
EST
Temp
°C
App
Temp
°C
Dew
Point
Rel
Hum
%
Delta-T
°C
Wind Press
QNH
hPa
Press
MSL
hPa
Rain
since 9 am
mm
Dir
 
Spd
km/h
Gust
km/h
Spd
kts
Gust
kts
30/06:00pm 3.0 -7.6 2.9 99 0.0 W 48 69 26 37 - - 1.4
30/05:30pm 2.9 -8.1 2.8 99 0.0 W 50 72 27 39 - - 1.2
30/05:00pm 2.5 -8.2 2.4 99 0.0 W 48 70 26 38 - - 1.2
30/04:42pm 2.2 -6.9 2.1 99 0.0 W 39 59 21 32 - - 1.2
30/04:30pm 2.1 -6.2 2.0 99 0.0 WNW 35 50 19 27 - - 0.8
30/04:00pm 1.9 -6.8 1.8 99 0.0 WNW 37 52 20 28 - - 0.6
30/03:30pm 2.1 -8.7 1.8 98 0.1 WNW 48 70 26 38 - - 0.4
30/03:02pm 3.0 -6.9 1.5 90 0.6 NW 43 65 23 35 - - 0.2
30/03:00pm 2.7 -7.2 1.5 92 0.5 NW 43 57 23 31 - - 0.2
30/02:43pm 2.3 -7.7 1.3 93 0.4 NW 43 61 23 33 - - 0.0
30/02:30pm 1.7 -7.9 1.1 96 0.2 NW 41 59 22 32 - - 0.0
30/02:18pm 2.0 -7.2 1.4 96 0.2 NW 39 59 21 32 - - 0.0
30/02:00pm 1.6 -8.1 0.7 94 0.4 NW 41 56 22 30 - - 0.0
30/01:30pm 1.5 -8.7 0.8 95 0.3 NW 44 61 24 33 - - 0.0
30/01:14pm 1.4 -9.7 0.1 91 0.5 WNW 48 67 26 36 - - 0.0
30/01:00pm 3.1 -8.2 -1.3 73 1.7 NW 48 65 26 35 - - 0.0
30/12:30pm 2.2 -9.8 -1.2 78 1.3 NW 52 74 28 40 - - 0.0
30/12:04pm 1.9 -8.4 -1.3 79 1.2 NW 43 63 23 34 - - 0.0
30/12:00pm 2.1 -8.2 -1.3 78 1.3 NW 43 57 23 31 - - 0.0
30/11:35am 1.9 -7.3 -1.2 80 1.2 NW 37 61 20 33 - - 0.0
30/11:30am 1.8 -6.9 -0.8 83 1.0 NW 35 52 19 28 - - 0.0
30/11:00am 2.9 -7.1 -2.0 70 1.9 NW 41 54 22 29 - - 0.0
30/10:30am 2.1 -9.3 -2.0 74 1.6 NW 48 65 26 35 - - 0.0
30/10:00am 2.6 -8.8 -2.5 69 1.9 NW 48 70 26 38 - - 0.0
30/09:30am 1.9 -10.3 -2.2 74 1.5 NW 52 74 28 40 - - 0.0
30/09:00am 2.2 -9.0 -3.3 67 2.0 NW 46 65 25 35 - - 0.0
30/08:51am 2.2 -9.1 -4.1 63 2.4 NW 46 67 25 36 - - 0.0
30/08:30am 2.4 -8.9 -4.6 60 2.6 NW 46 63 25 34 - - 0.0
30/08:00am 2.5 -8.3 -3.6 64 2.2 NW 44 65 24 35 - - 0.0
30/07:30am 1.6 -9.0 -3.1 71 1.8 NW 43 65 23 35 - - 0.0
30/07:00am 1.1 -7.8 -2.1 79 1.3 NW 35 63 19 34 - - 0.0
30/06:35am 0.5 -9.4 -0.9 90 0.6 WNW 41 59 22 32 - - 0.0
30/06:30am 0.5 -10.0 -0.8 91 0.5 WNW 44 59 24 32 - - 0.0
30/06:00am 0.8 -9.6 -0.3 92 0.4 WNW 44 57 24 31 - - 0.0
30/05:30am 0.5 -11.0 -0.4 94 0.3 WNW 50 65 27 35 - - 0.0
30/05:00am 0.5 -10.3 -0.6 92 0.4 NW 46 57 25 31 - - 0.0
30/04:30am 0.7 -9.8 -0.9 89 0.6 NW 44 63 24 34 - - 0.0
30/04:02am 0.9 -10.3 -0.9 88 0.7 NW 48 67 26 36 - - 0.0
30/04:00am 0.8 -10.1 -1.0 88 0.7 NW 46 63 25 34 - - 0.0
30/03:55am 0.5 -9.7 -0.5 93 0.4 NW 43 63 23 34 - - 0.0
30/03:30am 0.2 -9.6 -0.5 95 0.3 NW 41 54 22 29 - - 0.0
30/03:00am 0.7 -9.7 -0.4 92 0.4 NW 44 57 24 31 - - 0.0
30/02:30am 0.6 -9.6 -0.3 94 0.4 NW 43 63 23 34 - - 0.0
30/02:13am 0.7 -9.5 -0.3 93 0.4 NW 43 61 23 33 - - 0.0
30/02:00am 0.6 -9.8 -0.4 93 0.4 NW 44 61 24 33 - - 0.0
30/01:30am 0.6 -11.7 -0.3 94 0.4 NW 54 69 29 37 - - 0.0
30/01:00am 0.4 -9.9 0.0 97 0.2 NW 44 59 24 32 - - 0.0
30/12:38am 0.5 -8.9 -0.1 96 0.2 NW 39 57 21 31 - - 0.0
30/12:30am 0.5 -9.3 -0.1 96 0.2 NW 41 54 22 29 - - 0.0
30/12:06am 0.7 -9.4 0.1 96 0.2 NW 43 61 23 33 - - 0.0
30/12:00am 0.7 -10.0 0.1 96 0.2 NW 46 59 25 32 - - 0.0
 
Date/Time
EST
Temp
°C
App
Temp
°C
Dew
Point
Rel
Hum
%
Delta-T
°C
Wind Press
QNH
hPa
Press
MSL
hPa
Rain
since 9 am
mm
Dir
 
Spd
km/h
Gust
km/h
Spd
kts
Gust
kts
29/11:30pm 0.8 -8.9 0.2 96 0.2 NW 41 59 22 32 - - 0.0
29/11:00pm 0.7 -9.0 0.3 97 0.2 NW 41 56 22 30 - - 0.0
29/10:30pm 0.7 -8.6 0.4 98 0.1 NW 39 54 21 29 - - 0.0
29/10:00pm 0.7 -8.3 0.3 97 0.2 NW 37 56 20 30 - - 0.0
29/09:30pm 0.5 -7.5 0.4 99 0.0 NW 32 44 17 24 - - 0.0
29/09:00pm 1.0 -7.5 0.6 97 0.2 NW 35 48 19 26 - - 0.0
29/08:30pm 1.1 -7.9 0.2 94 0.4 NW 37 50 20 27 - - 0.0
29/08:00pm 1.0 -7.0 0.6 97 0.2 NW 32 44 17 24 - - 0.0
29/07:30pm 1.0 -7.0 0.7 98 0.1 NW 32 46 17 25 - - 0.0
29/07:00pm 1.1 -7.0 0.7 97 0.2 NW 33 44 18 24 - - 0.0
29/06:30pm 1.2 -7.7 0.8 97 0.2 NW 37 50 20 27 - - 0.0
29/06:00pm 1.3 -6.6 1.0 98 0.1 NW 32 48 17 26 - - 0.0
29/05:56pm 1.3 -6.2 0.9 97 0.2 NW 30 48 16 26 - - 0.0
29/05:30pm 1.3 -6.8 1.0 98 0.1 NW 33 46 18 25 - - 0.0
29/05:00pm 1.4 -6.2 0.8 96 0.2 NNW 30 43 16 23 - - 0.0
29/04:30pm 1.5 -5.3 0.6 94 0.4 NW 26 35 14 19 - - 0.0
29/04:00pm 1.7 -4.7 0.7 93 0.4 NW 24 37 13 20 - - 0.0
29/03:30pm 1.8 -4.6 0.8 93 0.4 NW 24 39 13 21 - - 0.0
29/03:00pm 1.7 -5.1 0.8 94 0.4 NW 26 37 14 20 - - 0.0
29/02:30pm 1.5 -5.3 0.8 95 0.3 NW 26 43 14 23 - - 0.0
29/02:00pm 1.5 -5.3 0.9 96 0.2 NW 26 37 14 20 - - 0.0
29/01:30pm 1.3 -5.9 1.0 98 0.1 NW 28 39 15 21 - - 0.0
29/01:00pm 1.4 -5.3 1.3 99 0.0 NW 26 39 14 21 - - 0.0
29/12:30pm 1.5 -5.2 1.4 99 0.0 NW 26 44 14 24 - - 0.0
29/12:00pm 1.6 -5.5 1.5 99 0.0 NW 28 41 15 22 - - 0.0
29/11:30am 1.6 -5.5 1.3 98 0.1 NW 28 35 15 19 - - 0.0
29/11:00am 1.6 -5.5 1.5 99 0.0 NW 28 46 15 25 - - 0.0
29/10:59am 1.6 -5.5 1.5 99 0.0 NW 28 46 15 25 - - 0.0
29/10:30am 1.4 -5.3 1.3 99 0.0 NW 26 39 14 21 - - 0.0
29/10:00am 1.4 -5.7 1.3 99 0.0 NNW 28 39 15 21 - - 0.0
29/09:30am 1.3 -5.4 1.2 99 0.0 NW 26 37 14 20 - - 0.0
29/09:00am 1.3 -5.1 1.2 99 0.0 NW 24 35 13 19 - - 0.6
29/08:30am 1.2 -5.2 1.1 99 0.0 NW 24 32 13 17 - - 0.6
29/08:00am 1.2 -4.4 1.1 99 0.0 NW 20 28 11 15 - - 0.6
29/07:30am 1.2 -4.4 1.1 99 0.0 NW 20 26 11 14 - - 0.6
29/07:00am 1.2 -4.4 1.1 99 0.0 NW 20 32 11 17 - - 0.6
29/06:30am 1.4 -4.0 1.3 99 0.0 NW 19 24 10 13 - - 0.6
29/06:00am 1.5 -3.9 1.4 99 0.0 NW 19 26 10 14 - - 0.6
29/05:30am 1.5 -4.4 1.4 99 0.0 NW 22 32 12 17 - - 0.6
29/05:00am 1.6 -4.3 1.5 99 0.0 NW 22 32 12 17 - - 0.6
29/04:30am 1.5 -3.9 1.4 99 0.0 NW 19 28 10 15 - - 0.6
29/04:00am 1.4 -4.2 1.3 99 0.0 WNW 20 28 11 15 - - 0.6
29/03:30am 1.5 -3.5 1.4 99 0.0 WNW 17 22 9 12 - - 0.6
29/03:00am 1.5 -3.1 1.4 99 0.0 WNW 15 26 8 14 - - 0.6
29/02:30am 1.5 -2.7 1.4 99 0.0 NW 13 19 7 10 - - 0.6
29/02:00am 1.5 -2.7 1.4 99 0.0 WNW 13 19 7 10 - - 0.6
29/01:30am 2.2 -1.5 2.1 99 0.0 WNW 11 17 6 9 - - 0.6
29/01:00am 1.9 -2.7 1.8 99 0.0 WNW 15 24 8 13 - - 0.6
29/12:30am 2.1 -2.4 2.0 99 0.0 WNW 15 19 8 10 - - 0.6
29/12:00am 2.0 -1.4 1.9 99 0.0 NW 9 13 5 7 - - 0.6
 
Date/Time
EST
Temp
°C
App
Temp
°C
Dew
Point
Rel
Hum
%
Delta-T
°C
Wind Press
QNH
hPa
Press
MSL
hPa
Rain
since 9 am
mm
Dir
 
Spd
km/h
Gust
km/h
Spd
kts
Gust
kts
28/11:30pm 2.1 -0.9 2.0 99 0.0 NW 7 13 4 7 - - 0.6
28/11:00pm 2.1 -0.9 2.0 99 0.0 NW 7 9 4 5 - - 0.6
28/10:30pm 1.9 -1.5 1.8 99 0.0 NW 9 13 5 7 - - 0.6
28/10:00pm 1.7 -2.5 1.6 99 0.0 W 13 20 7 11 - - 0.6
28/09:30pm 1.8 -1.1 1.7 99 0.0 W 6 9 3 5 - - 0.6
28/09:00pm 1.8 -0.7 1.7 99 0.0 WSW 4 9 2 5 - - 0.6
28/08:30pm 1.9 -0.9 1.8 99 0.0 WSW 6 13 3 7 - - 0.6
28/08:00pm 2.1 -0.9 2.0 99 0.0 WSW 7 13 4 7 - - 0.6
28/07:30pm 2.6 -0.7 2.5 99 0.0 WSW 9 17 5 9 - - 0.6
28/07:00pm 2.7 -0.6 2.6 99 0.0 WSW 9 19 5 10 - - 0.6
28/06:30pm 2.6 -0.3 2.5 99 0.0 WSW 7 17 4 9 - - 0.6
28/06:00pm 2.5 -1.2 2.4 99 0.0 WSW 11 20 6 11 - - 0.6
28/05:30pm 2.6 -0.3 2.5 99 0.0 W 7 15 4 8 - - 0.6
28/05:00pm 2.8 -0.5 2.7 99 0.0 WSW 9 17 5 9 - - 0.6
28/04:30pm 2.9 0.0 2.8 99 0.0 WSW 7 13 4 7 - - 0.6
28/04:00pm 3.1 0.3 3.0 99 0.0 W 7 13 4 7 - - 0.6
28/03:30pm 3.0 0.3 2.9 99 0.0 W 6 7 3 4 - - 0.6
28/03:00pm 3.4 0.8 3.3 99 0.0 WSW 6 13 3 7 - - 0.4
28/02:30pm 3.3 0.7 3.2 99 0.0 WNW 6 9 3 5 - - 0.0
28/02:00pm 3.6 0.9 3.5 99 0.0 W 7 15 4 8 - - 0.0
28/01:30pm 3.8 1.3 3.7 99 0.0 WSW 6 11 3 6 - - 0.0
28/01:00pm 3.2 0.4 3.1 99 0.0 WSW 7 13 4 7 - - 0.0
28/12:30pm 3.2 -0.4 3.1 99 0.0 WSW 11 17 6 9 - - 0.0
28/12:00pm 2.9 -1.5 2.8 99 0.0 WSW 15 24 8 13 - - 0.0
28/11:30am 2.6 -1.1 2.5 99 0.0 W 11 19 6 10 - - 0.0
28/11:00am 2.5 -1.2 2.4 99 0.0 WSW 11 19 6 10 - - 0.0
28/10:30am 2.0 -2.9 1.9 99 0.0 WSW 17 26 9 14 - - 0.0
28/10:00am 1.5 -4.4 1.4 99 0.0 WSW 22 30 12 16 - - 0.0
28/09:30am 1.4 -5.3 1.3 99 0.0 WSW 26 33 14 18 - - 0.0
28/09:00am 1.3 -5.1 1.2 99 0.0 WSW 24 32 13 17 - - 2.0
28/08:30am 0.9 -7.2 0.8 99 0.0 WSW 33 43 18 23 - - 2.0
28/08:00am 0.9 -7.0 0.8 99 0.0 WSW 32 39 17 21 - - 2.0
28/07:30am 0.7 -7.3 0.6 99 0.0 WSW 32 41 17 22 - - 2.0
28/07:00am 0.5 -7.1 0.4 99 0.0 WSW 30 35 16 19 - - 2.0
28/06:30am 0.8 -5.6 0.7 99 0.0 WSW 24 30 13 16 - - 2.0
28/06:00am 0.7 -6.5 0.6 99 0.0 WSW 28 33 15 18 - - 2.0
28/05:30am 0.6 -5.9 0.5 99 0.0 WSW 24 32 13 17 - - 2.0
28/05:00am 0.8 -6.0 0.7 99 0.0 WSW 26 33 14 18 - - 1.8
28/04:30am 1.0 -7.1 0.9 99 0.0 WSW 33 43 18 23 - - 1.8
28/04:00am 1.1 -6.8 1.0 99 0.0 WSW 32 43 17 23 - - 1.8
28/03:30am 1.3 -6.8 1.2 99 0.0 WSW 33 46 18 25 - - 1.8
28/03:00am 1.4 -7.0 1.3 99 0.0 WSW 35 44 19 24 - - 1.8
28/02:30am 1.1 -6.8 1.0 99 0.0 WSW 32 41 17 22 - - 1.8
28/02:00am 1.1 -6.8 1.0 99 0.0 WSW 32 41 17 22 - - 1.8
28/01:30am 1.1 -6.8 1.0 99 0.0 WSW 32 43 17 23 - - 1.8
28/01:00am 1.2 -6.7 1.1 99 0.0 WSW 32 41 17 22 - - 1.8
28/12:30am 1.1 -7.4 1.0 99 0.0 WSW 35 44 19 24 - - 1.8
28/12:00am 1.1 -7.4 1.0 99 0.0 WSW 35 46 19 25 - - 1.8
 
Date/Time
EST
Temp
°C
App
Temp
°C
Dew
Point
Rel
Hum
%
Delta-T
°C
Wind Press
QNH
hPa
Press
MSL
hPa
Rain
since 9 am
mm
Dir
 
Spd
km/h
Gust
km/h
Spd
kts
Gust
kts
27/11:30pm 1.2 -7.6 1.1 99 0.0 WSW 37 54 20 29 - - 1.8
27/11:00pm 1.2 -5.9 1.1 99 0.0 SW 28 39 15 21 - - 1.8
27/10:30pm 1.3 -7.2 1.2 99 0.0 WSW 35 50 19 27 - - 1.8
27/10:00pm 1.1 -7.4 1.0 99 0.0 WSW 35 46 19 25 - - 1.8
27/09:30pm 1.2 -8.0 1.1 99 0.0 WSW 39 57 21 31 - - 1.8
27/09:00pm 1.3 -7.5 1.2 99 0.0 WSW 37 56 20 30 - - 1.8
27/08:30pm 1.3 -7.2 1.2 99 0.0 WSW 35 52 19 28 - - 1.8
27/08:21pm 1.4 -6.5 1.3 99 0.0 WSW 32 52 17 28 - - 1.8
27/08:00pm 1.4 -5.7 1.3 99 0.0 WSW 28 43 15 23 - - 1.8
27/07:35pm 1.4 -5.7 1.3 99 0.0 WSW 28 50 15 27 - - 1.8
27/07:30pm 1.5 -4.8 1.4 99 0.0 WSW 24 46 13 25 - - 1.8
27/07:00pm 1.5 -4.4 1.4 99 0.0 W 22 43 12 23 - - 1.6
27/06:30pm 1.5 -4.1 1.4 99 0.0 WSW 20 37 11 20 - - 1.6

Other Formats:

Comma delimited format used in spreadsheet applications
http://www.bom.gov.au/fwo/IDV60801/IDV60801.94833.axf

JavaScript Object Notation format (JSON) in row-major order
http://www.bom.gov.au/fwo/IDV60801/IDV60801.94833.json